Time;durP1;ratioP1;P1;durP2;ratioP2;P2;SDS_P1;SDS_P2;PMS_P1;PMS_P2;Temp;Humidity;BMP_temperature;BMP_pressure;BME280_temperature;BME280_humidity;BME280_pressure;Samples;Min_cycle;Max_cycle;Signal;HPM_P1;HPM_P2
2023/12/23 00:02:23;;;;;;;8.68;5.13;;;;;;;8.02;54.18;98983.03;5071924;28;20042;-82
2023/12/23 00:04:49;;;;;;;7.90;5.28;;;;;;;7.98;54.02;98987.84;5091351;28;20031;-82
2023/12/23 00:07:14;;;;;;;17.90;5.40;;;;;;;8.16;54.07;99017.34;5091425;28;20020;-82
2023/12/23 00:09:41;;;;;;;9.25;5.15;;;;;;;8.18;54.04;99021.56;5091329;28;20062;-82
2023/12/23 00:12:08;;;;;;;6.75;5.10;;;;;;;8.10;53.65;99009.91;5092517;28;20028;-81
2023/12/23 00:14:34;;;;;;;11.32;4.97;;;;;;;8.02;54.16;98993.75;5092116;28;20050;-81
2023/12/23 00:17:00;;;;;;;8.32;5.07;;;;;;;8.17;53.74;99038.63;5104710;28;20051;-83
2023/12/23 00:19:25;;;;;;;11.20;5.40;;;;;;;8.12;53.48;99022.16;5098896;28;20052;-82
2023/12/23 00:21:51;;;;;;;13.73;5.70;;;;;;;8.21;53.51;99037.34;5091032;28;20016;-81
2023/12/23 00:24:16;;;;;;;9.18;4.30;;;;;;;8.10;53.46;99015.28;5092826;28;20110;-83
2023/12/23 00:26:42;;;;;;;5.72;4.78;;;;;;;7.98;53.33;99014.59;5090712;28;20084;-82
2023/12/23 00:29:07;;;;;;;9.13;4.78;;;;;;;8.04;53.12;99023.91;5091321;28;20107;-82
2023/12/23 00:31:33;;;;;;;13.40;5.13;;;;;;;8.23;53.02;99053.25;5090888;28;20412;-85
2023/12/23 00:33:58;;;;;;;5.38;4.10;;;;;;;8.19;53.33;99049.19;5090475;28;20077;-82
2023/12/23 00:36:24;;;;;;;6.90;4.60;;;;;;;8.16;53.09;99033.44;5090496;28;20089;-82
2023/12/23 00:38:49;;;;;;;8.90;4.32;;;;;;;8.26;53.33;99042.22;5090043;28;20065;-82
2023/12/23 00:41:15;;;;;;;11.25;4.38;;;;;;;8.00;52.85;99006.44;5090147;28;20020;-81
2023/12/23 00:43:40;;;;;;;9.70;4.00;;;;;;;8.28;53.04;99044.81;5090057;28;20093;-82
2023/12/23 00:46:08;;;;;;;4.43;3.83;;;;;;;8.29;52.80;99038.47;5090079;28;20105;-84
2023/12/23 00:48:34;;;;;;;9.40;5.20;;;;;;;8.18;52.57;99023.41;5070638;28;20038;-82
2023/12/23 00:51:00;;;;;;;6.60;4.32;;;;;;;8.31;53.13;99034.66;5089582;28;20032;-82
2023/12/23 00:53:26;;;;;;;12.10;3.92;;;;;;;7.82;52.59;98943.97;5070330;28;20451;-82
2023/12/23 00:55:52;;;;;;;8.00;4.00;;;;;;;7.95;52.63;98969.38;5090277;28;20104;-81
2023/12/23 00:58:18;;;;;;;4.35;3.78;;;;;;;8.28;53.00;99021.56;5090602;28;20039;-83
2023/12/23 01:00:43;;;;;;;5.13;4.35;;;;;;;8.26;52.69;99018.13;5092134;28;20480;-81
2023/12/23 01:03:09;;;;;;;4.72;4.03;;;;;;;8.23;52.54;99029.13;5091725;28;20510;-82
2023/12/23 01:05:34;;;;;;;6.22;4.43;;;;;;;8.25;52.59;99029.00;5098066;28;20039;-83
2023/12/23 01:08:00;;;;;;;6.25;4.10;;;;;;;8.02;52.59;98997.25;5113571;28;20024;-86
2023/12/23 01:10:26;;;;;;;10.43;4.28;;;;;;;8.04;52.54;98997.13;5100109;28;20016;-82
2023/12/23 01:12:52;;;;;;;7.10;4.68;;;;;;;8.26;52.46;99020.81;5089510;28;20487;-82
2023/12/23 01:15:18;;;;;;;5.65;4.15;;;;;;;8.10;52.52;99002.69;5089548;28;20032;-83
2023/12/23 01:17:44;;;;;;;17.73;5.18;;;;;;;8.26;52.84;99014.59;5089465;28;20043;-82
2023/12/23 01:20:10;;;;;;;5.93;4.68;;;;;;;8.32;52.57;99028.28;5089679;28;20541;-83
2023/12/23 01:22:36;;;;;;;8.07;4.03;;;;;;;8.41;51.99;99027.38;5088987;28;20020;-85
2023/12/23 01:25:02;;;;;;;7.60;4.45;;;;;;;8.36;52.05;99021.63;5089033;28;20503;-82
2023/12/23 01:27:28;;;;;;;9.05;4.90;;;;;;;8.42;52.21;99036.25;5088833;28;20476;-81
2023/12/23 01:29:53;;;;;;;5.40;4.10;;;;;;;8.46;51.48;99038.50;5089013;28;20035;-81
2023/12/23 01:32:19;;;;;;;11.60;4.93;;;;;;;8.27;51.40;99000.22;5088970;28;20023;-82
2023/12/23 01:34:44;;;;;;;11.50;4.32;;;;;;;8.34;51.69;99018.28;5088854;28;20031;-82
2023/12/23 01:37:10;;;;;;;7.05;4.53;;;;;;;8.51;51.82;99040.72;5088607;28;20024;-83
2023/12/23 01:39:35;;;;;;;7.03;4.63;;;;;;;8.51;51.46;99030.84;5089060;28;20059;-81
2023/12/23 01:42:01;;;;;;;8.38;5.07;;;;;;;8.37;51.79;99012.63;5088978;28;20028;-81
2023/12/23 01:44:26;;;;;;;6.22;4.13;;;;;;;8.27;51.81;99013.63;5088733;28;20082;-82
2023/12/23 01:46:54;;;;;;;10.20;4.72;;;;;;;8.33;51.57;99018.41;5089214;28;20491;-81
2023/12/23 01:49:20;;;;;;;11.40;3.88;;;;;;;8.59;51.57;99047.00;5090256;28;20059;-82
2023/12/23 01:51:47;;;;;;;23.08;6.22;;;;;;;8.63;51.59;99042.19;5092243;28;20499;-83
2023/12/23 01:54:13;;;;;;;5.32;4.38;;;;;;;8.47;51.63;99025.94;5090843;28;20557;-82
2023/12/23 01:56:39;;;;;;;10.57;4.80;;;;;;;8.40;51.83;99033.75;5107367;28;20030;-84
2023/12/23 01:59:04;;;;;;;10.20;5.38;;;;;;;8.30;51.50;99019.56;5112227;28;20043;-82
2023/12/23 02:01:31;;;;;;;9.45;4.53;;;;;;;8.33;51.72;99016.56;5092313;28;20032;-83
2023/12/23 02:03:57;;;;;;;12.52;5.55;;;;;;;8.15;51.41;98991.56;5090487;28;20032;-84
2023/12/23 02:06:22;;;;;;;8.45;5.78;;;;;;;8.37;51.60;99012.63;5088469;28;20047;-81
2023/12/23 02:08:48;;;;;;;13.15;6.30;;;;;;;8.41;51.44;98989.88;5088871;28;20028;-82
2023/12/23 02:11:37;;;;;;;10.50;6.45;;;;;;;8.41;51.79;99005.13;5088574;28;20028;-82
2023/12/23 02:14:15;;;;;;;9.25;5.85;;;;;;;8.25;51.82;98986.16;5065426;28;20037;-81
2023/12/23 02:16:41;;;;;;;13.65;6.22;;;;;;;8.14;51.87;98969.28;5065128;28;20068;-84
2023/12/23 02:19:07;;;;;;;10.68;5.43;;;;;;;8.23;51.52;98987.13;5065645;28;20606;-85
2023/12/23 02:21:32;;;;;;;10.00;5.38;;;;;;;8.15;51.59;98983.53;5065456;28;20115;-82
2023/12/23 02:23:58;;;;;;;8.00;6.15;;;;;;;8.13;51.70;98980.16;5048673;28;20040;-81
2023/12/23 02:26:26;;;;;;;6.22;5.50;;;;;;;8.09;52.07;98986.81;5064928;28;20059;-81
2023/12/23 02:28:55;;;;;;;10.95;5.32;;;;;;;8.07;51.59;98976.22;5065062;28;20079;-84
2023/12/23 02:31:21;;;;;;;15.25;6.60;;;;;;;8.11;51.66;98993.69;5064906;28;20045;-82
2023/12/23 02:33:48;;;;;;;8.48;4.82;;;;;;;8.02;51.40;98967.81;5066131;28;20111;-82
2023/12/23 02:36:19;;;;;;;25.75;5.20;;;;;;;8.00;51.55;98969.81;5065734;28;20098;-82
2023/12/23 02:38:44;;;;;;;7.80;5.72;;;;;;;8.09;52.04;98984.13;5066373;28;20029;-81
2023/12/23 02:41:10;;;;;;;8.27;5.65;;;;;;;7.90;52.12;98957.44;5067971;28;20029;-81
2023/12/23 02:43:35;;;;;;;12.43;6.22;;;;;;;7.76;51.61;98924.03;5067592;28;20032;-81
2023/12/23 02:46:01;;;;;;;9.00;5.55;;;;;;;7.99;52.07;98962.75;5072958;28;20025;-82
2023/12/23 02:48:26;;;;;;;6.47;4.97;;;;;;;7.83;51.86;98930.44;5087517;28;20043;-84
2023/12/23 02:50:52;;;;;;;6.45;4.90;;;;;;;7.84;52.06;98920.59;5086454;28;20061;-83
2023/12/23 02:53:17;;;;;;;9.63;5.32;;;;;;;8.03;52.33;98936.53;5108516;28;20056;-81
2023/12/23 02:55:43;;;;;;;12.32;6.22;;;;;;;8.04;52.87;98943.59;5092133;28;20051;-84
2023/12/23 02:58:09;;;;;;;11.68;5.93;;;;;;;7.98;52.62;98941.50;5087898;28;20021;-82
2023/12/23 03:00:35;;;;;;;8.52;5.05;;;;;;;8.14;53.04;98966.63;5087674;28;20533;-81
2023/12/23 03:03:01;;;;;;;13.10;6.03;;;;;;;7.97;52.50;98947.84;5087762;28;20024;-85
2023/12/23 03:05:26;;;;;;;13.70;7.13;;;;;;;7.93;52.34;98949.13;5087954;28;20097;-82
2023/12/23 03:07:52;;;;;;;13.75;7.07;;;;;;;8.08;52.83;98967.22;5088218;28;20077;-83
2023/12/23 03:10:17;;;;;;;11.60;6.55;;;;;;;8.08;52.24;98961.00;5088357;28;20101;-82
2023/12/23 03:12:43;;;;;;;12.02;6.72;;;;;;;8.18;52.48;98964.50;5088499;28;20107;-82
2023/12/23 03:15:09;;;;;;;10.55;6.50;;;;;;;8.20;52.33;98975.88;5088337;28;20080;-83
2023/12/23 03:17:34;;;;;;;8.05;4.80;;;;;;;7.96;52.68;98930.94;5088689;28;20024;-82
2023/12/23 03:20:00;;;;;;;9.68;5.90;;;;;;;7.99;52.46;98960.09;5088151;28;20027;-81
2023/12/23 03:22:26;;;;;;;9.32;5.35;;;;;;;7.94;52.92;98940.13;5088656;28;20028;-82
2023/12/23 03:24:51;;;;;;;10.40;4.72;;;;;;;7.99;52.67;98961.91;5088455;28;20024;-81
2023/12/23 03:27:18;;;;;;;7.78;5.45;;;;;;;8.04;52.70;98973.03;5088957;28;20032;-83
2023/12/23 03:29:44;;;;;;;14.95;6.78;;;;;;;7.77;52.84;98920.31;5091964;28;20046;-81
2023/12/23 03:32:10;;;;;;;13.02;6.28;;;;;;;8.01;53.50;98971.47;5094821;28;20047;-82
2023/12/23 03:34:36;;;;;;;11.75;5.90;;;;;;;8.02;53.61;98964.28;5092944;28;20376;-81
2023/12/23 03:37:01;;;;;;;23.90;5.88;;;;;;;7.88;53.32;98927.34;5109251;28;20024;-83
2023/12/23 03:39:27;;;;;;;9.50;5.22;;;;;;;8.05;53.44;98951.47;5106249;28;20032;-85
2023/12/23 03:41:52;;;;;;;7.50;5.80;;;;;;;7.89;53.47;98902.25;5103875;28;20711;-81
2023/12/23 03:44:18;;;;;;;7.38;4.68;;;;;;;8.13;53.40;98922.09;5108920;28;20052;-84
2023/12/23 03:46:43;;;;;;;8.68;5.55;;;;;;;8.17;53.63;98925.31;5091349;28;20464;-82
2023/12/23 03:49:09;;;;;;;7.07;5.00;;;;;;;8.03;53.79;98896.38;5090813;28;20085;-82
2023/12/23 03:51:34;;;;;;;6.25;5.30;;;;;;;8.26;53.45;98919.03;5091037;28;20424;-82
2023/12/23 03:54:00;;;;;;;6.07;4.38;;;;;;;8.13;53.42;98897.16;5072990;28;20036;-81
2023/12/23 03:56:25;;;;;;;4.80;3.88;;;;;;;8.36;53.50;98927.03;5071114;28;20044;-81
2023/12/23 03:58:51;;;;;;;10.90;4.18;;;;;;;8.35;53.23;98936.91;5070854;28;20025;-83
2023/12/23 04:01:17;;;;;;;12.05;5.07;;;;;;;8.35;53.63;98938.78;5071041;28;20035;-82
2023/12/23 04:03:43;;;;;;;4.45;3.45;;;;;;;8.42;53.34;98958.56;5069404;28;20032;-82
2023/12/23 04:06:12;;;;;;;7.03;4.43;;;;;;;8.37;53.18;98939.44;5070682;28;20070;-85
2023/12/23 04:08:39;;;;;;;25.42;4.63;;;;;;;8.47;52.65;98962.47;5079933;28;20020;-84
2023/12/23 04:11:05;;;;;;;14.38;4.60;;;;;;;8.52;52.45;98960.19;5091209;28;20028;-82
2023/12/23 04:13:30;;;;;;;4.43;3.95;;;;;;;8.55;52.87;98975.97;5090700;28;20024;-78
2023/12/23 04:15:56;;;;;;;8.45;4.53;;;;;;;8.49;52.75;98939.06;5090351;28;20024;-81
2023/12/23 04:18:21;;;;;;;5.93;3.95;;;;;;;8.53;52.87;98945.78;5091201;28;20024;-79
2023/12/23 04:20:47;;;;;;;5.35;4.38;;;;;;;8.46;53.05;98922.47;5092097;28;20035;-75
2023/12/23 04:23:12;;;;;;;6.07;4.20;;;;;;;8.44;52.93;98916.44;5091389;28;20024;-79
2023/12/23 04:25:38;;;;;;;5.50;4.63;;;;;;;8.67;53.34;98961.34;5108891;28;20067;-78
2023/12/23 04:28:04;;;;;;;10.90;4.28;;;;;;;8.53;52.72;98932.41;5119771;28;20050;-79
2023/12/23 04:30:29;;;;;;;12.68;5.35;;;;;;;8.77;52.98;98971.16;5121348;28;20036;-85
2023/12/23 04:32:55;;;;;;;21.80;5.72;;;;;;;8.77;52.95;98975.50;5108726;28;20035;-81
2023/12/23 04:35:21;;;;;;;32.38;5.65;;;;;;;8.64;52.59;98956.31;5099784;28;20790;-78
2023/12/23 04:37:47;;;;;;;9.68;4.22;;;;;;;8.85;52.69;98982.78;5105383;28;20035;-79
2023/12/23 04:40:13;;;;;;;11.50;4.18;;;;;;;8.99;52.75;98976.84;5107197;28;20027;-80
2023/12/23 04:42:38;;;;;;;6.78;4.55;;;;;;;9.00;51.94;98957.09;5107362;28;20123;-81
2023/12/23 04:45:04;;;;;;;6.80;4.32;;;;;;;8.57;51.88;98882.88;5107711;28;20493;-80
2023/12/23 04:47:30;;;;;;;5.22;4.13;;;;;;;9.09;51.83;98964.22;5107036;28;20043;-77
2023/12/23 04:49:56;;;;;;;6.72;4.47;;;;;;;9.15;51.80;98957.38;5106974;28;20479;-79
2023/12/23 04:52:21;;;;;;;8.80;4.55;;;;;;;9.11;51.60;98956.03;5106563;28;20073;-79
2023/12/23 04:54:46;;;;;;;13.60;4.78;;;;;;;9.20;51.42;98950.53;5107495;28;20027;-81
2023/12/23 04:57:12;;;;;;;18.75;4.53;;;;;;;9.13;51.41;98954.88;5093956;28;20036;-82
2023/12/23 04:59:37;;;;;;;8.30;4.63;;;;;;;9.10;51.68;98963.22;5089586;28;20116;-79
2023/12/23 05:02:04;;;;;;;5.82;3.75;;;;;;;8.97;51.47;98944.00;5086911;28;20039;-78
2023/12/23 05:04:29;;;;;;;8.98;4.20;;;;;;;9.19;51.35;98973.00;5090059;28;20028;-79
2023/12/23 05:06:57;;;;;;;5.60;3.38;;;;;;;9.23;51.76;98957.47;5089125;28;20074;-79
2023/12/23 05:09:23;;;;;;;6.47;3.70;;;;;;;9.29;51.57;98954.16;5089982;28;20106;-79
2023/12/23 05:11:48;;;;;;;6.32;3.38;;;;;;;9.14;51.35;98907.44;5091160;28;20543;-77
2023/12/23 05:14:14;;;;;;;10.52;4.03;;;;;;;9.21;51.05;98905.78;5090283;28;20046;-79
2023/12/23 05:16:39;;;;;;;14.45;3.75;;;;;;;9.32;50.92;98918.94;5097310;28;20027;-79
2023/12/23 05:19:05;;;;;;;4.13;3.67;;;;;;;9.20;50.95;98880.00;5102471;28;20665;-80
2023/12/23 05:21:30;;;;;;;11.27;3.72;;;;;;;9.34;50.95;98891.97;5089426;28;20023;-76
2023/12/23 05:23:56;;;;;;;20.15;4.35;;;;;;;9.41;50.73;98899.22;5089600;28;20032;-80
2023/12/23 05:26:22;;;;;;;13.02;3.97;;;;;;;9.27;51.07;98875.66;5089286;28;20063;-80
2023/12/23 05:28:48;;;;;;;7.13;3.47;;;;;;;9.48;50.80;98896.75;5090039;28;20253;-78
2023/12/23 05:31:14;;;;;;;3.70;3.22;;;;;;;9.47;51.13;98882.47;5089318;28;20028;-78
2023/12/23 05:33:39;;;;;;;8.15;4.22;;;;;;;9.46;50.63;98877.25;5089529;28;20055;-78
2023/12/23 05:36:05;;;;;;;11.38;5.60;;;;;;;9.54;50.79;98880.81;5089112;28;20035;-78
2023/12/23 05:38:30;;;;;;;6.45;4.30;;;;;;;9.42;50.93;98847.22;5089047;28;20381;-79
2023/12/23 05:40:56;;;;;;;23.88;5.53;;;;;;;9.47;50.67;98863.69;5089092;28;20032;-80
2023/12/23 05:43:22;;;;;;;13.10;4.88;;;;;;;9.51;51.19;98865.03;5089331;28;20024;-79
2023/12/23 05:45:48;;;;;;;11.77;5.93;;;;;;;9.57;50.99;98861.72;5088885;28;20384;-77
2023/12/23 05:48:14;;;;;;;7.55;5.45;;;;;;;9.58;51.37;98868.78;5089676;28;20495;-85
2023/12/23 05:50:39;;;;;;;16.75;6.68;;;;;;;9.64;51.34;98873.50;5087992;28;20042;-78
2023/12/23 05:53:05;;;;;;;11.05;6.70;;;;;;;9.61;51.30;98867.59;5088015;28;20028;-76
2023/12/23 05:55:31;;;;;;;13.65;7.40;;;;;;;9.37;50.91;98854.94;5089802;28;20544;-82
2023/12/23 05:57:56;;;;;;;9.00;6.57;;;;;;;9.56;51.31;98886.88;5090679;28;20028;-80
2023/12/23 06:00:22;;;;;;;17.10;6.57;;;;;;;9.57;51.27;98887.72;5091850;28;20047;-79
2023/12/23 06:02:48;;;;;;;15.15;7.28;;;;;;;9.63;51.07;98925.47;5093623;28;20043;-84
2023/12/23 06:05:13;;;;;;;27.00;8.18;;;;;;;9.53;51.30;98914.03;5099359;28;20040;-87
2023/12/23 06:07:39;;;;;;;14.98;7.00;;;;;;;9.54;51.18;98914.88;5112717;28;20066;-90
2023/12/23 06:10:05;;;;;;;13.07;6.90;;;;;;;9.45;51.33;98883.66;5097880;28;20107;-86
2023/12/23 06:12:30;;;;;;;11.75;6.78;;;;;;;9.40;51.77;98865.34;5092509;28;20046;-87
2023/12/23 06:14:57;;;;;;;35.85;16.98;;;;;;;9.51;51.92;98893.75;5090038;28;20028;-87
2023/12/23 06:17:23;;;;;;;53.50;22.85;;;;;;;9.61;52.11;98884.56;5090564;28;20387;-83
2023/12/23 06:19:49;;;;;;;23.33;11.52;;;;;;;9.62;52.17;98896.13;5089096;28;20028;-81
2023/12/23 06:22:14;;;;;;;21.75;10.55;;;;;;;9.32;52.82;98829.59;5089340;28;20028;-81
2023/12/23 06:24:40;;;;;;;16.48;9.95;;;;;;;9.43;52.95;98827.44;5089194;28;20077;-84
2023/12/23 06:27:05;;;;;;;29.35;14.73;;;;;;;9.63;52.86;98868.31;5089058;28;20511;-83
2023/12/23 06:29:31;;;;;;;19.73;13.52;;;;;;;9.55;52.57;98863.72;5088505;28;20054;-80
2023/12/23 06:31:59;;;;;;;35.45;16.17;;;;;;;9.52;52.84;98853.31;5088777;28;20020;-86
2023/12/23 06:34:24;;;;;;;23.30;15.30;;;;;;;9.37;52.71;98828.09;5089373;28;20028;-83
2023/12/23 06:36:50;;;;;;;21.35;13.60;;;;;;;9.64;53.12;98860.06;5089212;28;20043;-81
2023/12/23 06:39:15;;;;;;;27.35;14.45;;;;;;;9.43;53.33;98822.09;5089289;28;20407;-81
2023/12/23 06:41:41;;;;;;;16.60;10.30;;;;;;;9.58;52.50;98849.97;5089203;28;20027;-81
2023/12/23 06:44:06;;;;;;;25.88;12.45;;;;;;;9.60;52.93;98845.28;5089415;28;20502;-81
2023/12/23 06:46:32;;;;;;;21.52;12.43;;;;;;;9.73;52.48;98858.25;5089866;28;20025;-81
2023/12/23 06:48:57;;;;;;;18.27;12.43;;;;;;;9.69;52.41;98855.03;5089732;28;20394;-82
2023/12/23 06:51:23;;;;;;;35.00;12.68;;;;;;;9.70;52.23;98846.00;5090007;28;20122;-82
2023/12/23 06:53:48;;;;;;;21.73;11.50;;;;;;;9.82;52.45;98860.81;5095412;28;20031;-83
2023/12/23 06:56:14;;;;;;;18.23;12.45;;;;;;;9.85;52.53;98871.22;5110145;28;20028;-83
2023/12/23 06:58:39;;;;;;;35.00;13.15;;;;;;;9.87;52.63;98864.84;5098532;28;20032;-81
2023/12/23 07:01:05;;;;;;;43.28;12.23;;;;;;;9.83;52.15;98858.97;5088983;28;20111;-81
2023/12/23 07:03:31;;;;;;;38.53;11.70;;;;;;;9.74;52.41;98831.25;5090033;28;20028;-81
2023/12/23 07:05:57;;;;;;;33.80;11.88;;;;;;;9.91;52.55;98863.53;5092008;28;20019;-80
2023/12/23 07:08:22;;;;;;;46.95;12.70;;;;;;;9.88;51.23;98869.22;5092682;28;20028;-84
2023/12/23 07:10:49;;;;;;;36.08;9.35;;;;;;;9.98;51.45;98869.91;5092598;28;20874;-81
2023/12/23 07:13:15;;;;;;;31.08;9.70;;;;;;;9.97;51.04;98852.13;5093530;28;20407;-83
2023/12/23 07:15:40;;;;;;;27.67;9.88;;;;;;;10.01;51.10;98846.25;5091641;28;20024;-85
2023/12/23 07:18:06;;;;;;;20.52;9.85;;;;;;;9.86;50.38;98813.00;5090499;28;20578;-85
2023/12/23 07:20:32;;;;;;;27.13;8.25;;;;;;;9.94;50.34;98831.78;5093318;28;20028;-83
2023/12/23 07:22:58;;;;;;;15.00;6.72;;;;;;;10.12;49.87;98831.69;5093406;28;20406;-84
2023/12/23 07:25:24;;;;;;;14.73;7.05;;;;;;;10.13;49.55;98844.09;5091750;28;20121;-84
2023/12/23 07:27:49;;;;;;;22.77;6.75;;;;;;;10.10;49.19;98857.84;5091471;28;20024;-84
2023/12/23 07:30:15;;;;;;;14.45;5.85;;;;;;;10.12;49.00;98840.56;5092513;28;20032;-80
2023/12/23 07:32:41;;;;;;;23.73;7.90;;;;;;;10.08;49.32;98830.31;5091403;28;20020;-78
2023/12/23 07:35:06;;;;;;;24.88;10.40;;;;;;;10.02;49.59;98812.19;5092008;28;20036;-81
2023/12/23 07:37:32;;;;;;;18.17;10.82;;;;;;;10.13;49.33;98806.47;5085992;28;20052;-80
2023/12/23 07:39:57;;;;;;;24.02;9.40;;;;;;;9.83;48.64;98749.75;5073773;28;20020;-83
2023/12/23 07:42:23;;;;;;;30.75;12.98;;;;;;;10.18;47.94;98833.75;5074275;28;20029;-86
2023/12/23 07:44:48;;;;;;;20.52;10.52;;;;;;;10.20;48.27;98823.66;5094228;28;20100;-86
2023/12/23 07:47:14;;;;;;;22.70;10.60;;;;;;;10.31;48.12;98824.16;5085157;28;20052;-82
2023/12/23 07:49:42;;;;;;;14.52;8.15;;;;;;;10.30;47.49;98800.97;5069155;28;20028;-84
2023/12/23 07:52:08;;;;;;;25.08;8.55;;;;;;;10.51;47.58;98823.84;5068698;28;20510;-83
2023/12/23 07:54:34;;;;;;;20.77;8.35;;;;;;;10.58;47.12;98804.16;5069538;28;20044;-82
2023/12/23 07:56:59;;;;;;;22.92;9.65;;;;;;;10.62;47.34;98800.13;5068144;28;20041;-82
2023/12/23 07:59:25;;;;;;;26.33;11.75;;;;;;;10.76;46.60;98812.88;5069828;28;20036;-84
2023/12/23 08:01:50;;;;;;;30.40;9.65;;;;;;;10.87;46.28;98812.53;5068550;28;20040;-84
2023/12/23 08:04:16;;;;;;;26.23;11.45;;;;;;;10.85;46.40;98814.56;5068883;28;20467;-83
2023/12/23 08:06:42;;;;;;;33.30;11.23;;;;;;;11.00;46.53;98819.25;5067536;28;20526;-82
2023/12/23 08:09:07;;;;;;;20.45;7.32;;;;;;;10.86;46.62;98805.47;5067992;28;20189;-82
2023/12/23 08:11:34;;;;;;;37.17;12.68;;;;;;;10.78;46.93;98775.94;5069034;28;20064;-82
2023/12/23 08:14:01;;;;;;;11.27;6.10;;;;;;;10.98;46.76;98810.53;5066951;28;20040;-83
2023/12/23 08:16:26;;;;;;;17.77;5.03;;;;;;;11.19;47.41;98835.00;5072374;28;20641;-83
2023/12/23 08:18:52;;;;;;;15.43;5.43;;;;;;;11.15;48.08;98839.03;5088970;28;20115;-84
2023/12/23 08:21:17;;;;;;;9.38;5.43;;;;;;;11.09;47.22;98835.19;5089391;28;20131;-83
2023/12/23 08:23:43;;;;;;;12.93;5.88;;;;;;;11.27;47.53;98876.19;5090885;28;20433;-85
2023/12/23 08:26:09;;;;;;;12.57;7.45;;;;;;;11.27;47.80;98878.03;5091996;28;20040;-81
2023/12/23 08:28:34;;;;;;;17.80;7.15;;;;;;;11.25;47.80;98878.19;5092867;28;20519;-81
2023/12/23 08:31:03;;;;;;;14.30;5.75;;;;;;;11.31;47.58;98893.66;5074797;28;20110;-83
2023/12/23 08:33:29;;;;;;;18.20;7.38;;;;;;;11.25;48.28;98885.44;5109777;28;20039;-86
2023/12/23 08:35:57;;;;;;;15.13;6.63;;;;;;;11.30;48.59;98901.91;5087934;28;20039;-79
2023/12/23 08:38:23;;;;;;;14.30;4.88;;;;;;;11.13;49.35;98917.22;5091929;28;20522;-81
2023/12/23 08:40:48;;;;;;;15.85;5.75;;;;;;;11.10;49.77;98897.91;5093786;28;20044;-87
2023/12/23 08:43:15;;;;;;;14.23;4.65;;;;;;;11.12;50.04;98894.03;5090492;28;20057;-85
2023/12/23 08:45:41;;;;;;;10.40;4.20;;;;;;;10.96;50.74;98903.97;5085540;28;20028;-80
2023/12/23 08:48:06;;;;;;;6.25;4.22;;;;;;;10.99;51.51;98898.25;5089883;28;20024;-85
2023/12/23 08:50:32;;;;;;;8.20;4.35;;;;;;;10.83;52.31;98878.44;5090338;28;20046;-82
2023/12/23 08:52:57;;;;;;;6.85;4.70;;;;;;;10.65;52.64;98820.47;5090465;28;20387;-84
2023/12/23 08:55:23;;;;;;;14.60;4.50;;;;;;;10.83;52.50;98829.19;5090505;28;20093;-85
2023/12/23 08:57:49;;;;;;;11.45;4.93;;;;;;;10.96;52.68;98836.72;5090657;28;20024;-86
2023/12/23 09:00:15;;;;;;;6.82;4.15;;;;;;;11.00;52.47;98830.84;5091325;28;20078;-82
2023/12/23 09:02:41;;;;;;;11.20;4.00;;;;;;;11.04;52.78;98834.03;5091689;28;20457;-83
2023/12/23 09:05:07;;;;;;;17.00;4.78;;;;;;;10.95;53.03;98843.13;5093813;28;20107;-84
2023/12/23 09:07:32;;;;;;;16.08;4.13;;;;;;;10.70;53.54;98818.94;5093345;28;20028;-83
2023/12/23 09:09:58;;;;;;;15.00;4.65;;;;;;;10.81;54.29;98837.44;5091175;28;20085;-85
2023/12/23 09:12:23;;;;;;;21.35;4.82;;;;;;;10.71;54.93;98807.19;5091828;28;20468;-84
2023/12/23 09:14:49;;;;;;;9.85;4.95;;;;;;;10.92;55.20;98839.75;5091667;28;20024;-85
2023/12/23 09:17:15;;;;;;;11.63;3.90;;;;;;;10.77;55.55;98819.09;5093526;28;20450;-83
2023/12/23 09:19:41;;;;;;;8.45;4.55;;;;;;;10.90;56.64;98844.47;5094241;28;20023;-83
2023/12/23 09:22:07;;;;;;;14.02;4.75;;;;;;;10.58;56.43;98793.41;5104827;28;20063;-86
2023/12/23 09:24:34;;;;;;;7.05;3.53;;;;;;;10.72;56.97;98838.44;5113252;28;20016;-86
2023/12/23 09:27:00;;;;;;;11.77;4.38;;;;;;;10.83;57.12;98854.22;5095692;28;20055;-85
2023/12/23 09:29:25;;;;;;;6.75;4.60;;;;;;;10.75;57.31;98824.66;5090252;28;20039;-85
2023/12/23 09:31:51;;;;;;;10.40;4.50;;;;;;;10.90;57.94;98832.88;5091970;28;20537;-83
2023/12/23 09:34:16;;;;;;;8.93;4.90;;;;;;;10.87;57.50;98817.94;5091464;28;20088;-84
2023/12/23 09:36:42;;;;;;;13.15;3.90;;;;;;;10.81;57.77;98826.69;5090364;28;20043;-85
2023/12/23 09:39:07;;;;;;;7.97;3.95;;;;;;;11.09;57.69;98872.00;5090692;28;20050;-85
2023/12/23 09:41:33;;;;;;;12.48;4.28;;;;;;;11.06;57.55;98866.97;5091433;28;20079;-82
2023/12/23 09:43:59;;;;;;;8.65;3.72;;;;;;;11.04;57.64;98858.25;5090642;28;20024;-83
2023/12/23 09:46:25;;;;;;;5.03;3.17;;;;;;;10.60;58.18;98810.22;5091301;28;20083;-85
2023/12/23 09:48:50;;;;;;;10.98;4.15;;;;;;;10.79;58.08;98844.81;5090691;28;20035;-84
2023/12/23 09:51:19;;;;;;;32.90;5.35;;;;;;;10.79;58.52;98842.13;5091170;28;20160;-85
2023/12/23 09:53:50;;;;;;;15.35;5.50;;;;;;;10.74;58.36;98836.41;5091471;28;20119;-86
2023/12/23 09:56:15;;;;;;;16.45;3.95;;;;;;;10.80;59.11;98862.63;5090594;28;20380;-83
2023/12/23 09:58:44;;;;;;;14.07;4.35;;;;;;;10.88;59.06;98859.94;5089529;28;20096;-84
2023/12/23 10:01:10;;;;;;;21.83;4.57;;;;;;;10.94;58.74;98853.06;5089734;28;20039;-85
2023/12/23 10:03:35;;;;;;;14.93;3.38;;;;;;;10.90;58.28;98822.97;5089744;28;20024;-85
2023/12/23 10:06:01;;;;;;;8.60;3.47;;;;;;;11.03;58.52;98845.81;5088345;28;20047;-82
2023/12/23 10:08:28;;;;;;;25.58;3.45;;;;;;;11.00;57.92;98849.69;5092064;28;20502;-84
2023/12/23 10:10:53;;;;;;;20.42;5.50;;;;;;;10.89;58.27;98834.72;5092696;28;20099;-83
2023/12/23 10:13:19;;;;;;;12.75;4.30;;;;;;;10.91;57.16;98784.31;5113543;28;20024;-85
2023/12/23 10:15:45;;;;;;;18.50;5.70;;;;;;;10.99;57.52;98806.78;5112284;28;20032;-85
2023/12/23 10:18:11;;;;;;;15.85;6.28;;;;;;;11.08;56.84;98808.47;5092367;28;20028;-84
2023/12/23 10:20:37;;;;;;;23.63;9.18;;;;;;;11.13;56.30;98785.41;5089762;28;20028;-86
2023/12/23 10:23:03;;;;;;;15.75;5.57;;;;;;;11.24;56.41;98840.69;5089218;28;20016;-85
2023/12/23 10:25:30;;;;;;;8.65;3.60;;;;;;;11.25;56.07;98802.84;5088835;28;20056;-84
2023/12/23 10:28:04;;;;;;;36.13;6.10;;;;;;;11.32;55.59;98808.38;5071774;28;20119;-84
2023/12/23 10:30:33;;;;;;;16.83;5.20;;;;;;;11.21;55.87;98782.69;5089477;28;20024;-85
2023/12/23 10:33:05;;;;;;;17.48;3.95;;;;;;;11.20;55.46;98817.84;5089324;28;20423;-84
2023/12/23 10:35:47;;;;;;;27.80;7.30;;;;;;;11.29;56.22;98836.47;5089893;28;20166;-84
2023/12/23 10:38:16;;;;;;;19.40;4.57;;;;;;;11.38;56.24;98834.59;5088807;28;20024;-85
2023/12/23 10:40:45;;;;;;;14.80;4.30;;;;;;;11.40;56.51;98837.97;5089798;28;20031;-85
2023/12/23 10:43:12;;;;;;;9.80;4.13;;;;;;;11.34;55.84;98822.50;5089803;28;20023;-84
2023/12/23 10:45:41;;;;;;;12.50;4.68;;;;;;;11.27;55.53;98791.91;5092606;28;20115;-85
2023/12/23 10:48:08;;;;;;;10.57;4.28;;;;;;;11.31;55.15;98790.56;5090930;28;20023;-85
2023/12/23 10:50:35;;;;;;;8.55;3.63;;;;;;;11.40;55.42;98829.91;5089471;28;20034;-84
2023/12/23 10:53:03;;;;;;;15.10;5.00;;;;;;;11.31;55.46;98812.91;5090628;28;20031;-86
2023/12/23 10:55:30;;;;;;;18.70;4.85;;;;;;;11.31;55.38;98844.38;5091038;28;20063;-84
2023/12/23 10:57:57;;;;;;;20.55;5.95;;;;;;;11.22;56.38;98850.81;5095837;28;20025;-85
2023/12/23 11:00:23;;;;;;;14.02;6.18;;;;;;;11.19;56.33;98845.78;5094671;28;20446;-85
2023/12/23 11:02:51;;;;;;;23.50;4.68;;;;;;;11.34;55.56;98898.69;5102502;28;20024;-86
2023/12/23 11:05:19;;;;;;;10.55;5.43;;;;;;;11.40;56.29;98907.94;5113979;28;20032;-85
2023/12/23 11:07:47;;;;;;;18.48;4.53;;;;;;;11.08;55.58;98881.09;5097818;28;20032;-85
2023/12/23 11:10:15;;;;;;;15.52;5.00;;;;;;;11.17;55.79;98904.28;5088573;28;20048;-86
2023/12/23 11:12:43;;;;;;;15.90;5.30;;;;;;;11.19;55.62;98919.22;5088260;28;20078;-84
2023/12/23 11:15:08;;;;;;;49.88;5.55;;;;;;;11.11;55.35;98899.56;5088523;28;20634;-86
2023/12/23 11:17:40;;;;;;;7.80;4.45;;;;;;;11.06;55.43;98907.31;5088950;28;20032;-83
2023/12/23 11:20:07;;;;;;;6.77;3.83;;;;;;;11.10;55.48;98917.56;5088054;28;20024;-84
2023/12/23 11:22:37;;;;;;;14.20;3.97;;;;;;;11.13;55.59;98919.91;5088741;28;20254;-84
2023/12/23 11:25:03;;;;;;;8.32;3.55;;;;;;;10.87;55.43;98871.72;5086662;28;20059;-85
2023/12/23 11:27:36;;;;;;;11.18;3.60;;;;;;;11.17;55.47;98925.81;5088970;28;20021;-83